createdAt,value
2023-01-30T00:01:19.704Z,81.15
2023-01-30T00:03:32.369Z,81.41
2023-01-30T00:05:45.146Z,81.02
2023-01-30T00:07:57.804Z,81.30
2023-01-30T00:10:10.887Z,81.18
2023-01-30T00:12:24.126Z,80.77
2023-01-30T00:14:36.730Z,80.97
2023-01-30T00:16:49.520Z,80.82
2023-01-30T00:19:02.105Z,80.93
2023-01-30T00:21:15.270Z,80.96
2023-01-30T00:23:29.260Z,80.87
2023-01-30T00:25:45.889Z,80.85
2023-01-30T00:28:00.179Z,81.10
2023-01-30T00:30:13.035Z,81.22
2023-01-30T00:32:27.006Z,81.30
2023-01-30T00:34:39.616Z,81.42
2023-01-30T00:39:24.597Z,81.22
2023-01-30T00:41:55.514Z,81.30
2023-01-30T00:44:26.829Z,81.36
2023-01-30T00:46:57.777Z,81.19
2023-01-30T00:49:10.357Z,81.53
2023-01-30T00:51:23.059Z,81.90
2023-01-30T00:53:35.595Z,81.37
2023-01-30T00:55:51.201Z,81.53
2023-01-30T00:58:04.123Z,81.70
2023-01-30T01:00:17.968Z,81.54
2023-01-30T01:02:30.895Z,81.52
2023-01-30T01:04:43.687Z,81.44
2023-01-30T01:06:56.478Z,81.25
2023-01-30T01:09:09.527Z,81.32
2023-01-30T01:11:25.073Z,81.06
2023-01-30T01:13:37.711Z,81.66
2023-01-30T01:15:50.625Z,81.63
2023-01-30T01:18:03.353Z,80.97
2023-01-30T01:20:17.031Z,81.00
2023-01-30T01:22:29.565Z,81.47
2023-01-30T01:24:42.098Z,81.19
2023-01-30T01:26:54.768Z,81.09
2023-01-30T01:29:11.268Z,81.29
2023-01-30T01:31:24.556Z,81.17
2023-01-30T01:33:38.073Z,81.39
2023-01-30T01:35:50.902Z,81.23
2023-01-30T01:38:03.443Z,80.89
2023-01-30T01:40:38.058Z,81.31
2023-01-30T01:42:51.091Z,81.14
2023-01-30T01:45:17.205Z,81.08
2023-01-30T01:47:34.325Z,80.76
2023-01-30T01:49:46.931Z,81.03
2023-01-30T01:52:04.664Z,81.00
2023-01-30T01:54:23.400Z,80.93
2023-01-30T01:56:39.652Z,81.00
2023-01-30T01:59:01.862Z,81.14
2023-01-30T02:01:14.980Z,80.37
2023-01-30T02:03:30.783Z,80.45
2023-01-30T02:05:47.849Z,80.68
2023-01-30T02:08:07.692Z,80.52
2023-01-30T02:10:48.890Z,80.46
2023-01-30T02:13:01.482Z,80.13
2023-01-30T02:15:14.076Z,80.54
2023-01-30T02:17:26.727Z,80.74
2023-01-30T02:20:06.252Z,80.41
2023-01-30T02:22:21.515Z,80.58
2023-01-30T02:24:52.608Z,80.73
2023-01-30T02:27:33.739Z,80.67
2023-01-30T02:30:23.843Z,80.60
2023-01-30T02:33:16.978Z,80.85
2023-01-30T02:35:59.752Z,80.93
2023-01-30T02:38:41.490Z,80.71
2023-01-30T02:41:09.137Z,80.83
2023-01-30T02:43:33.213Z,80.90
2023-01-30T02:45:56.241Z,81.09
2023-01-30T02:48:17.277Z,81.15
2023-01-30T02:50:40.760Z,80.90
2023-01-30T02:52:53.517Z,81.26
2023-01-30T02:55:10.675Z,81.38
2023-01-30T02:57:25.456Z,81.20
2023-01-30T02:59:44.604Z,81.36
2023-01-30T03:02:22.028Z,80.85
2023-01-30T03:04:56.873Z,81.35
2023-01-30T03:07:38.525Z,81.05
2023-01-30T03:10:17.004Z,80.95
2023-01-30T03:12:43.057Z,81.13
2023-01-30T03:15:01.294Z,81.25
2023-01-30T03:17:16.580Z,81.27
2023-01-30T03:19:30.092Z,81.09
2023-01-30T03:21:44.866Z,81.19
2023-01-30T03:23:57.522Z,81.14
2023-01-30T03:26:18.596Z,80.56
2023-01-30T03:28:32.487Z,80.46
2023-01-30T03:30:45.077Z,80.62
2023-01-30T03:32:57.740Z,80.40
2023-01-30T03:35:10.353Z,80.22
2023-01-30T03:37:23.016Z,80.13
2023-01-30T03:39:36.050Z,80.16
2023-01-30T03:41:49.692Z,79.81
2023-01-30T03:44:02.227Z,79.65
2023-01-30T03:46:14.831Z,79.76
2023-01-30T03:48:28.570Z,79.25
2023-01-30T03:50:41.146Z,79.05
2023-01-30T03:52:54.008Z,79.01
2023-01-30T03:55:07.113Z,79.31
2023-01-30T03:57:19.659Z,79.34
2023-01-30T03:59:32.216Z,79.04
2023-01-30T04:01:44.785Z,79.10
2023-01-30T04:03:57.330Z,78.94
2023-01-30T04:06:09.935Z,78.79
2023-01-30T04:08:22.445Z,78.69
2023-01-30T04:10:35.041Z,78.71
2023-01-30T04:12:47.766Z,78.51
2023-01-30T04:15:00.297Z,77.88
2023-01-30T04:17:13.193Z,77.57
2023-01-30T04:19:25.822Z,77.61
2023-01-30T04:21:38.402Z,77.43
2023-01-30T04:23:50.965Z,77.14
2023-01-30T04:26:04.370Z,77.26
2023-01-30T04:28:16.877Z,76.80
2023-01-30T04:30:29.504Z,77.01
2023-01-30T04:32:42.116Z,76.63
2023-01-30T04:34:54.672Z,76.74
2023-01-30T04:37:07.283Z,76.76
2023-01-30T04:39:21.286Z,76.69
2023-01-30T04:41:34.627Z,76.47
2023-01-30T04:43:47.194Z,76.67
2023-01-30T04:45:59.748Z,76.68
2023-01-30T04:48:12.892Z,76.60
2023-01-30T04:50:25.430Z,76.62
2023-01-30T04:52:39.624Z,76.93
2023-01-30T04:54:52.461Z,76.77
2023-01-30T04:57:04.921Z,77.09
2023-01-30T04:59:17.681Z,76.99
2023-01-30T05:01:33.059Z,77.19
2023-01-30T05:03:45.698Z,77.13
2023-01-30T05:05:58.249Z,77.23
2023-01-30T05:08:10.826Z,77.35
2023-01-30T05:10:23.515Z,77.45
2023-01-30T05:12:36.154Z,77.43
2023-01-30T05:14:48.808Z,77.72
2023-01-30T05:17:01.450Z,77.71
2023-01-30T05:19:14.192Z,77.65
2023-01-30T05:21:28.683Z,77.88
2023-01-30T05:23:41.848Z,77.82
2023-01-30T05:25:54.577Z,77.93
2023-01-30T05:28:07.613Z,77.93
2023-01-30T05:30:20.559Z,78.03
2023-01-30T05:32:33.372Z,77.98
2023-01-30T05:34:46.253Z,78.24
2023-01-30T05:36:58.906Z,78.03
2023-01-30T05:39:11.647Z,78.13
2023-01-30T05:41:24.229Z,78.08
2023-01-30T05:43:36.843Z,78.22
2023-01-30T05:45:53.677Z,78.00
2023-01-30T05:48:06.632Z,78.12
2023-01-30T05:50:19.699Z,78.35
2023-01-30T05:52:33.364Z,78.21
2023-01-30T05:54:45.992Z,78.43
2023-01-30T05:56:58.558Z,78.26
2023-01-30T05:59:12.029Z,78.38
2023-01-30T06:01:25.092Z,78.62
2023-01-30T06:03:38.308Z,78.38
2023-01-30T06:05:50.841Z,78.55
2023-01-30T06:08:03.480Z,78.62
2023-01-30T06:10:16.394Z,78.67
2023-01-30T06:12:28.916Z,78.68
2023-01-30T06:14:41.669Z,78.85
2023-01-30T06:16:54.298Z,78.94
2023-01-30T06:19:08.275Z,78.96
2023-01-30T06:21:20.866Z,78.99
2023-01-30T06:23:33.852Z,79.20
2023-01-30T06:25:48.885Z,79.10
2023-01-30T06:28:01.674Z,79.27
2023-01-30T06:30:14.571Z,79.38
2023-01-30T06:32:27.578Z,79.37
2023-01-30T06:34:40.166Z,79.54
2023-01-30T06:36:52.780Z,79.54
2023-01-30T06:39:05.405Z,79.78
2023-01-30T06:41:18.109Z,80.05
2023-01-30T06:43:30.765Z,80.13
2023-01-30T06:45:43.716Z,80.47
2023-01-30T06:47:57.287Z,80.51
2023-01-30T06:50:10.110Z,80.41
2023-01-30T06:52:22.773Z,80.48
2023-01-30T06:54:35.330Z,80.85
2023-01-30T06:56:47.830Z,81.19
2023-01-30T06:59:00.441Z,81.56
2023-01-30T07:01:13.031Z,82.03
2023-01-30T07:03:25.642Z,82.46
2023-01-30T07:05:42.634Z,82.82
2023-01-30T07:07:55.261Z,83.39
2023-01-30T07:10:09.241Z,83.48
2023-01-30T07:12:22.375Z,83.91
2023-01-30T07:14:34.873Z,83.90
2023-01-30T07:16:47.459Z,84.23
2023-01-30T07:19:00.004Z,84.45
2023-01-30T07:21:12.542Z,84.76
2023-01-30T07:23:25.123Z,85.03
2023-01-30T07:25:37.655Z,85.46
2023-01-30T07:27:52.162Z,85.84
2023-01-30T07:30:05.325Z,86.24
2023-01-30T07:32:19.859Z,87.12
2023-01-30T07:34:33.309Z,87.21
2023-01-30T07:36:45.851Z,87.56
2023-01-30T07:38:58.392Z,88.13
2023-01-30T07:41:10.959Z,88.44
2023-01-30T07:43:24.161Z,88.72
2023-01-30T07:45:42.117Z,88.93
2023-01-30T07:47:54.872Z,89.93
2023-01-30T07:50:08.018Z,90.05
2023-01-30T07:52:20.560Z,90.09
2023-01-30T07:54:33.147Z,90.45
2023-01-30T07:56:45.665Z,91.29
2023-01-30T07:58:58.339Z,91.41
2023-01-30T08:01:10.963Z,91.59
2023-01-30T08:03:23.551Z,91.70
2023-01-30T08:05:36.105Z,92.19
2023-01-30T08:07:48.852Z,92.03
2023-01-30T08:10:01.426Z,92.27
2023-01-30T08:12:14.144Z,92.47
2023-01-30T08:14:28.683Z,92.50
2023-01-30T08:16:41.575Z,92.50
2023-01-30T08:18:54.213Z,92.60
2023-01-30T08:21:07.397Z,92.68
2023-01-30T08:23:19.938Z,92.55
2023-01-30T08:25:32.546Z,92.64
2023-01-30T08:27:45.132Z,92.52
2023-01-30T08:29:57.711Z,92.41
2023-01-30T08:32:10.962Z,92.48
2023-01-30T08:34:23.590Z,92.09
2023-01-30T08:36:36.291Z,91.75
2023-01-30T08:38:48.863Z,91.64
2023-01-30T08:41:04.803Z,91.57
2023-01-30T08:43:17.379Z,91.30
2023-01-30T08:45:30.717Z,91.44
2023-01-30T08:47:43.356Z,91.47
2023-01-30T08:49:55.859Z,91.47
2023-01-30T08:52:08.397Z,91.93
2023-01-30T08:54:22.227Z,91.77
2023-01-30T08:56:34.940Z,92.18
2023-01-30T08:58:49.035Z,92.35
2023-01-30T09:01:06.621Z,92.99
2023-01-30T09:03:19.344Z,93.02
2023-01-30T09:05:32.489Z,93.48
2023-01-30T09:07:45.125Z,94.24
2023-01-30T09:09:57.692Z,94.44
2023-01-30T09:12:10.251Z,95.33
2023-01-30T09:14:23.121Z,95.44
2023-01-30T09:16:35.697Z,96.01
2023-01-30T09:18:48.347Z,96.04
2023-01-30T09:21:04.800Z,96.34
2023-01-30T09:23:17.746Z,96.35
2023-01-30T09:25:30.339Z,96.43
2023-01-30T09:27:44.506Z,96.74
2023-01-30T09:29:57.208Z,97.09
2023-01-30T09:32:09.786Z,97.73
2023-01-30T09:34:28.499Z,97.73
2023-01-30T09:36:41.595Z,97.76
2023-01-30T09:38:54.313Z,98.45
2023-01-30T09:41:28.504Z,98.71
2023-01-30T09:44:02.700Z,99.15
2023-01-30T09:46:26.603Z,99.52
2023-01-30T09:48:53.661Z,99.85
2023-01-30T09:51:30.900Z,99.90
2023-01-30T09:54:22.258Z,100.00
2023-01-30T09:56:34.841Z,100.00
2023-01-30T09:59:01.347Z,100.00
2023-01-30T10:01:25.710Z,100.00
2023-01-30T10:04:04.042Z,100.00
2023-01-30T10:06:16.888Z,100.00
2023-01-30T10:08:51.188Z,100.00
2023-01-30T10:11:41.563Z,100.00
2023-01-30T10:14:12.792Z,100.00
2023-01-30T10:16:35.046Z,100.00
2023-01-30T10:19:35.280Z,100.00
2023-01-30T10:21:48.361Z,100.00
2023-01-30T10:24:13.933Z,100.00
2023-01-30T10:26:28.346Z,100.00
2023-01-30T10:29:06.112Z,100.00
2023-01-30T10:31:22.869Z,100.00
2023-01-30T10:33:45.336Z,100.00
2023-01-30T10:36:06.401Z,100.00
2023-01-30T10:38:30.407Z,100.00
2023-01-30T10:40:49.285Z,100.00
2023-01-30T10:43:04.165Z,100.00
2023-01-30T10:45:20.947Z,100.00
2023-01-30T10:47:59.920Z,100.00
2023-01-30T10:50:19.498Z,100.00
2023-01-30T10:52:58.091Z,100.00
2023-01-30T10:55:36.265Z,100.00
2023-01-30T10:58:26.481Z,100.00
2023-01-30T11:00:48.824Z,100.00
2023-01-30T11:03:18.205Z,100.00
2023-01-30T11:05:41.604Z,100.00
2023-01-30T11:07:54.150Z,100.00
2023-01-30T11:10:15.870Z,100.00
2023-01-30T11:12:28.527Z,100.00
2023-01-30T11:14:59.148Z,100.00
2023-01-30T11:17:16.693Z,100.00
2023-01-30T11:19:34.482Z,100.00
2023-01-30T11:21:52.857Z,100.00
2023-01-30T11:24:14.223Z,100.00
2023-01-30T11:26:45.617Z,100.00
2023-01-30T11:28:59.723Z,100.00
2023-01-30T11:31:25.631Z,100.00
2023-01-30T11:34:01.105Z,100.00
2023-01-30T11:36:30.268Z,100.00
2023-01-30T11:38:56.763Z,100.00
2023-01-30T11:41:09.324Z,100.00
2023-01-30T11:43:24.815Z,100.00
2023-01-30T11:45:49.890Z,100.00
2023-01-30T11:48:07.878Z,100.00
2023-01-30T11:50:33.371Z,100.00
2023-01-30T11:52:48.556Z,100.00
2023-01-30T11:55:07.784Z,100.00
2023-01-30T11:57:21.037Z,100.00
2023-01-30T11:59:39.350Z,100.00
2023-01-30T12:02:01.493Z,100.00
2023-01-30T12:04:14.399Z,100.00
2023-01-30T12:06:32.185Z,100.00
2023-01-30T12:08:44.747Z,100.00
2023-01-30T12:11:01.267Z,100.00
2023-01-30T12:13:22.404Z,100.00
2023-01-30T12:15:37.850Z,100.00
2023-01-30T12:18:11.954Z,100.00
2023-01-30T12:20:52.595Z,100.00
2023-01-30T12:23:12.647Z,100.00
2023-01-30T12:25:35.744Z,100.00
2023-01-30T12:28:01.174Z,100.00
2023-01-30T12:30:32.460Z,100.00
2023-01-30T12:32:45.285Z,100.00
2023-01-30T12:34:57.910Z,100.00
2023-01-30T12:37:49.818Z,100.00
2023-01-30T12:40:16.083Z,100.00
2023-01-30T12:43:00.903Z,100.00
2023-01-30T12:45:23.051Z,100.00
2023-01-30T12:48:04.249Z,100.00
2023-01-30T12:50:54.536Z,100.00
2023-01-30T12:53:37.943Z,100.00
2023-01-30T12:56:19.046Z,100.00
2023-01-30T12:58:50.124Z,100.00
2023-01-30T13:01:27.919Z,100.00
2023-01-30T13:04:56.138Z,100.00
2023-01-30T13:07:27.154Z,100.00
2023-01-30T13:10:09.934Z,100.00
2023-01-30T13:13:00.060Z,100.00
2023-01-30T13:15:32.113Z,100.00
2023-01-30T13:18:02.652Z,100.00
2023-01-30T13:20:18.358Z,100.00
2023-01-30T13:22:51.783Z,100.00
2023-01-30T13:25:19.971Z,100.00
2023-01-30T13:27:37.451Z,100.00
2023-01-30T13:29:52.598Z,100.00
2023-01-30T13:32:14.235Z,100.00
2023-01-30T13:34:29.711Z,100.00
2023-01-30T13:36:57.022Z,100.00
2023-01-30T13:41:38.929Z,99.96
2023-01-30T13:43:54.465Z,99.94
2023-01-30T13:46:10.218Z,99.62
2023-01-30T13:48:42.610Z,99.81
2023-01-30T13:51:32.683Z,99.72
2023-01-30T13:54:08.625Z,98.42
2023-01-30T13:56:44.810Z,97.82
2023-01-30T13:59:34.403Z,97.27
2023-01-30T14:01:59.504Z,96.79
2023-01-30T14:04:39.446Z,96.79
2023-01-30T14:06:52.041Z,96.33
2023-01-30T14:09:29.082Z,95.57
2023-01-30T14:11:57.339Z,96.10
2023-01-30T14:14:15.766Z,95.68
2023-01-30T14:16:46.709Z,95.39
2023-01-30T14:18:59.344Z,94.71
2023-01-30T14:21:20.191Z,93.58
2023-01-30T14:23:34.996Z,93.76
2023-01-30T14:25:53.340Z,94.00
2023-01-30T14:28:05.997Z,93.89
2023-01-30T14:30:30.835Z,93.93
2023-01-30T14:32:54.971Z,93.21
2023-01-30T14:35:07.514Z,92.50
2023-01-30T14:37:27.317Z,91.93
2023-01-30T14:39:40.852Z,91.39
2023-01-30T14:42:12.428Z,90.71
2023-01-30T14:45:00.431Z,90.95
2023-01-30T14:47:34.156Z,90.34
2023-01-30T14:49:52.594Z,90.25
2023-01-30T14:52:05.246Z,90.09
2023-01-30T14:54:18.007Z,90.11
2023-01-30T14:56:55.522Z,89.83
2023-01-30T14:59:19.460Z,89.45
2023-01-30T15:01:56.828Z,89.54
2023-01-30T15:04:16.139Z,89.35
2023-01-30T15:06:35.924Z,88.85
2023-01-30T15:08:48.501Z,88.41
2023-01-30T15:11:27.489Z,88.47
2023-01-30T15:13:55.723Z,87.75
2023-01-30T15:16:30.555Z,87.84
2023-01-30T15:19:17.223Z,87.66
2023-01-30T15:21:50.260Z,87.73
2023-01-30T15:24:38.280Z,87.78
2023-01-30T15:27:12.574Z,87.73
2023-01-30T15:29:40.340Z,87.89
2023-01-30T15:31:57.612Z,87.94
2023-01-30T15:34:20.262Z,87.94
2023-01-30T15:36:34.963Z,87.89
2023-01-30T15:38:56.071Z,88.01
2023-01-30T15:41:10.432Z,88.07
2023-01-30T15:43:48.162Z,87.97
2023-01-30T15:46:03.838Z,87.69
2023-01-30T15:48:38.797Z,87.51
2023-01-30T15:50:55.151Z,87.29
2023-01-30T15:53:14.733Z,87.43
2023-01-30T15:55:31.028Z,87.50
2023-01-30T15:57:50.257Z,87.49
2023-01-30T16:00:06.992Z,87.26
2023-01-30T16:02:29.006Z,87.28
2023-01-30T16:04:41.731Z,87.25
2023-01-30T16:06:54.465Z,87.13
2023-01-30T16:09:20.361Z,86.99
2023-01-30T16:11:41.730Z,86.99
2023-01-30T16:13:54.363Z,87.02
2023-01-30T16:16:12.899Z,87.01
2023-01-30T16:18:36.576Z,86.64
2023-01-30T16:21:01.509Z,86.76
2023-01-30T16:23:24.837Z,86.68
2023-01-30T16:25:37.383Z,86.45
2023-01-30T16:27:52.282Z,86.26
2023-01-30T16:30:09.233Z,86.20
2023-01-30T16:32:31.841Z,86.49
2023-01-30T16:34:44.495Z,86.15
2023-01-30T16:37:02.442Z,86.11
2023-01-30T16:39:35.251Z,86.06
2023-01-30T16:41:55.015Z,86.19
2023-01-30T16:44:20.713Z,85.99
2023-01-30T16:46:42.212Z,85.56
2023-01-30T16:49:03.787Z,85.49
2023-01-30T16:51:22.859Z,85.42
2023-01-30T16:53:35.615Z,85.39
2023-01-30T16:56:03.802Z,85.17
2023-01-30T16:58:17.832Z,85.34
2023-01-30T17:00:38.794Z,85.38
2023-01-30T17:03:03.568Z,85.14
2023-01-30T17:05:19.730Z,85.25
2023-01-30T17:07:35.308Z,85.24
2023-01-30T17:09:48.506Z,85.16
2023-01-30T17:12:08.942Z,85.34
2023-01-30T17:14:32.935Z,85.41
2023-01-30T17:17:08.088Z,85.68
2023-01-30T17:19:23.756Z,85.94
2023-01-30T17:21:49.615Z,86.00
2023-01-30T17:24:06.023Z,86.03
2023-01-30T17:26:19.236Z,86.25
2023-01-30T17:28:31.808Z,86.48
2023-01-30T17:30:44.447Z,87.10
2023-01-30T17:32:57.108Z,87.81
2023-01-30T17:35:12.272Z,88.75
2023-01-30T17:37:24.953Z,89.76
2023-01-30T17:39:37.603Z,90.26
2023-01-30T17:41:50.548Z,90.32
2023-01-30T17:44:03.264Z,91.63
2023-01-30T17:46:16.416Z,91.69
2023-01-30T17:48:29.979Z,91.96
2023-01-30T17:50:42.629Z,92.11
2023-01-30T17:52:55.294Z,92.70
2023-01-30T17:55:12.135Z,92.72
2023-01-30T17:57:25.136Z,93.28
2023-01-30T17:59:37.643Z,93.70
2023-01-30T18:01:51.834Z,94.22
2023-01-30T18:04:04.687Z,94.52
2023-01-30T18:06:18.041Z,94.85
2023-01-30T18:08:30.643Z,95.31
2023-01-30T18:10:43.297Z,95.38
2023-01-30T18:12:55.910Z,95.56
2023-01-30T18:15:10.097Z,95.90
2023-01-30T18:17:23.953Z,95.91
2023-01-30T18:19:36.568Z,96.05
2023-01-30T18:21:49.879Z,96.21
2023-01-30T18:24:02.714Z,96.62
2023-01-30T18:26:16.526Z,96.50
2023-01-30T18:28:29.279Z,96.70
2023-01-30T18:30:41.936Z,97.02
2023-01-30T18:32:54.529Z,97.12
2023-01-30T18:35:07.804Z,97.00
2023-01-30T18:37:20.389Z,97.02
2023-01-30T18:39:33.291Z,97.41
2023-01-30T18:41:45.922Z,97.90
2023-01-30T18:44:04.649Z,97.72
2023-01-30T18:46:18.154Z,98.21
2023-01-30T18:48:31.984Z,98.81
2023-01-30T18:50:44.559Z,98.97
2023-01-30T18:52:58.048Z,98.74
2023-01-30T18:55:10.607Z,99.10
2023-01-30T18:57:23.349Z,99.62
2023-01-30T18:59:36.042Z,99.86
2023-01-30T19:01:48.802Z,99.86
2023-01-30T19:04:03.823Z,100.00
2023-01-30T19:06:18.779Z,99.97
2023-01-30T19:08:31.719Z,100.00
2023-01-30T19:10:44.671Z,100.00
2023-01-30T19:13:15.943Z,100.00
2023-01-30T19:15:28.602Z,100.00
2023-01-30T19:17:41.188Z,100.00
2023-01-30T19:19:53.750Z,100.00
2023-01-30T19:22:06.437Z,100.00
2023-01-30T19:24:19.197Z,100.00
2023-01-30T19:26:32.178Z,100.00
2023-01-30T19:28:45.207Z,100.00
2023-01-30T19:30:58.499Z,100.00
2023-01-30T19:33:11.085Z,100.00
2023-01-30T19:35:23.747Z,100.00
2023-01-30T19:37:38.510Z,100.00
2023-01-30T19:39:51.122Z,100.00
2023-01-30T19:42:03.943Z,100.00
2023-01-30T19:44:16.683Z,100.00
2023-01-30T19:46:29.691Z,100.00
2023-01-30T19:48:43.835Z,100.00
2023-01-30T19:50:56.811Z,100.00
2023-01-30T19:53:09.326Z,100.00
2023-01-30T19:55:21.960Z,100.00
2023-01-30T19:57:35.780Z,100.00
2023-01-30T19:59:48.306Z,100.00
2023-01-30T20:02:00.871Z,100.00
2023-01-30T20:04:13.607Z,100.00
2023-01-30T20:06:29.262Z,100.00
2023-01-30T20:08:43.597Z,100.00
2023-01-30T20:11:01.961Z,100.00
2023-01-30T20:13:14.643Z,100.00
2023-01-30T20:15:27.294Z,100.00
2023-01-30T20:17:39.906Z,100.00
2023-01-30T20:19:52.504Z,100.00
2023-01-30T20:22:08.156Z,100.00
2023-01-30T20:24:20.763Z,100.00
2023-01-30T20:26:36.064Z,100.00
2023-01-30T20:28:49.278Z,100.00
2023-01-30T20:31:08.977Z,100.00
2023-01-30T20:33:21.680Z,100.00
2023-01-30T20:35:35.574Z,100.00
2023-01-30T20:37:48.233Z,100.00
2023-01-30T20:40:00.822Z,100.00
2023-01-30T20:42:13.920Z,100.00
2023-01-30T20:44:27.019Z,100.00
2023-01-30T20:46:49.705Z,100.00
2023-01-30T20:49:02.367Z,100.00
2023-01-30T20:51:18.093Z,100.00
2023-01-30T20:53:30.915Z,100.00
2023-01-30T20:55:43.468Z,100.00
2023-01-30T20:57:56.036Z,100.00
2023-01-30T21:00:09.465Z,100.00
2023-01-30T21:02:22.069Z,100.00
2023-01-30T21:04:34.768Z,100.00
2023-01-30T21:06:47.403Z,100.00
2023-01-30T21:09:00.050Z,100.00
2023-01-30T21:11:15.377Z,100.00
2023-01-30T21:13:27.913Z,100.00
2023-01-30T21:15:40.447Z,100.00
2023-01-30T21:17:53.076Z,100.00
2023-01-30T21:20:05.976Z,100.00
2023-01-30T21:22:18.528Z,100.00
2023-01-30T21:24:31.215Z,100.00
2023-01-30T21:26:46.254Z,100.00
2023-01-30T21:29:03.655Z,100.00
2023-01-30T21:31:19.507Z,100.00
2023-01-30T21:33:32.157Z,100.00
2023-01-30T21:35:44.754Z,100.00
2023-01-30T21:38:15.861Z,100.00
2023-01-30T21:40:47.075Z,100.00
2023-01-30T21:43:15.016Z,100.00
2023-01-30T21:45:27.533Z,100.00
2023-01-30T21:47:40.111Z,100.00
2023-01-30T21:49:55.769Z,100.00
2023-01-30T21:52:08.459Z,100.00
2023-01-30T21:54:21.715Z,100.00
2023-01-30T21:56:34.361Z,100.00
2023-01-30T21:58:47.141Z,100.00
2023-01-30T22:01:07.586Z,100.00
2023-01-30T22:03:20.225Z,100.00
2023-01-30T22:05:36.495Z,100.00
2023-01-30T22:07:49.393Z,100.00
2023-01-30T22:10:02.441Z,100.00
2023-01-30T22:12:15.099Z,100.00
2023-01-30T22:14:27.687Z,100.00
2023-01-30T22:16:41.372Z,100.00
2023-01-30T22:18:57.294Z,100.00
2023-01-30T22:21:15.229Z,100.00
2023-01-30T22:23:36.261Z,100.00
2023-01-30T22:25:55.091Z,100.00
2023-01-30T22:28:09.424Z,100.00
2023-01-30T22:30:22.743Z,100.00
2023-01-30T22:32:35.258Z,100.00
2023-01-30T22:34:47.837Z,100.00
2023-01-30T22:37:00.372Z,100.00
2023-01-30T22:39:12.877Z,100.00
2023-01-30T22:41:27.409Z,100.00
2023-01-30T22:43:45.041Z,100.00
2023-01-30T22:46:00.684Z,100.00
2023-01-30T22:48:13.551Z,100.00
2023-01-30T22:50:26.079Z,100.00
2023-01-30T22:52:38.615Z,100.00
2023-01-30T22:54:51.150Z,100.00
2023-01-30T22:57:03.720Z,100.00
2023-01-30T22:59:16.370Z,100.00
2023-01-30T23:01:31.590Z,100.00
2023-01-30T23:03:45.841Z,100.00
2023-01-30T23:06:00.044Z,100.00
2023-01-30T23:08:12.578Z,100.00
2023-01-30T23:10:25.125Z,100.00
2023-01-30T23:12:56.410Z,100.00
2023-01-30T23:15:09.412Z,100.00
2023-01-30T23:17:40.779Z,100.00
2023-01-30T23:19:55.063Z,100.00
2023-01-30T23:22:07.625Z,100.00
2023-01-30T23:24:20.928Z,100.00
2023-01-30T23:26:36.241Z,100.00
2023-01-30T23:28:49.417Z,100.00
2023-01-30T23:31:13.979Z,100.00
2023-01-30T23:33:26.492Z,100.00
2023-01-30T23:35:38.987Z,100.00
2023-01-30T23:38:10.199Z,100.00
2023-01-30T23:40:22.868Z,100.00
2023-01-30T23:42:35.440Z,100.00
2023-01-30T23:44:47.982Z,100.00
2023-01-30T23:47:00.581Z,100.00
2023-01-30T23:49:14.359Z,100.00
2023-01-30T23:51:29.083Z,99.90
2023-01-30T23:53:43.327Z,99.66
2023-01-30T23:55:55.993Z,99.78
2023-01-30T23:58:09.634Z,99.56
